Containerships 6 — DABH — position and weather

sailwx.info

Track history (hours):
 
Tides and Currents Weather Stations Pressure Air Temp Water Temp Dewpoint Dewpoint Depression Visibility Wind Speed Wind Dir Waves Ship Positions

Containerships 6

Last reported at 2016-May-27 01:22 UTC. Time now 2016-May-27 04:29 UTC.
Position N 59°59' E 026°00'.

Length 155 m; beam 21.8 m; draft 8.9 m.

Type: Ship (hazmat cat A). MMSI: 211315096.

Date/timePositionNaut miles runAvg speedWind from/ knotsBaromVisibWave heightAir tempDewpointWater temp
2016-May-27 01:22N 59°59' E 026°00'1215.1
2016-May-27 00:34N 60°01' E 026°24'1515.1
2016-May-26 23:34N 60°00' E 026°54'1514.6
2016-May-26 22:31N 60°05' E 027°23'2814.2
2016-May-26 20:33N 60°07' E 028°19'1312.8
2016-May-26 19:33N 60°03' E 028°43'5 5.5
2016-May-26 18:34N 60°03' E 028°53'6 5.4
2016-May-26 17:33N 60°02' E 029°05'6 5.7
2016-May-26 16:31N 60°02' E 029°16'10 7.6
2016-May-26 15:09N 60°00' E 029°37'3 5.1
2016-May-26 14:33N 60°00' E 029°43'0 0.2
2016-May-26 13:17N 60°00' E 029°43'0 0.0
2016-May-26 12:33N 60°00' E 029°43'0 0.0
2016-May-26 11:33N 60°00' E 029°43'0 0.0
2016-May-26 09:31N 60°00' E 029°43'0 0.0
2016-May-26 08:25N 60°00' E 029°43'0 0.0
2016-May-26 07:33N 60°00' E 029°43'0 0.0
2016-May-26 06:33N 60°00' E 029°43'0 0.1
2016-May-26 05:33N 60°00' E 029°43'6 5.9
2016-May-26 04:33N 60°01' E 029°31'10 9.2
2016-May-26 03:25N 60°02' E 029°10'6 7.2
2016-May-26 02:34N 60°02' E 028°58'7 7.3
2016-May-26 01:33N 60°02' E 028°43'1211.6
2016-May-26 00:33N 60°05' E 028°21'1514.9
2016-May-25 23:34N 60°10' E 027°53'1514.5
2016-May-25 22:33N 60°05' E 027°26'1514.9
2016-May-25 21:33N 59°58' E 026°59'1515.1
2016-May-25 20:34N 59°58' E 026°29'1715.8
2016-May-25 19:28N 59°54' E 025°56'1415.0
2016-May-25 18:33N 59°53' E 025°29'18 1.2
2016-May-25 03:14N 60°10' E 025°13'4816.4
2016-May-25 00:19N 59°39' E 023°59'1417.8
2016-May-24 23:33N 59°35' E 023°33'3817.9
2016-May-24 21:24N 59°20' E 022°24'30317.6
2016-May-24 04:14N 55°45' E 015°48'1217.9
2016-May-24 03:34N 55°38' E 015°30'1818.0
2016-May-24 02:34N 55°29' E 015°03'1817.9
2016-May-24 01:34N 55°21' E 014°34'1818.1
2016-May-24 00:33N 55°07' E 014°15'1817.6
2016-May-23 23:33N 54°58' E 013°49'1817.9
2016-May-23 22:33N 54°51' E 013°20'1818.1
2016-May-23 21:33N 54°46' E 012°50'2217.6
2016-May-23 20:19N 54°34' E 012°18'1415.0
2016-May-23 19:22N 54°25' E 011°59'1417.4
2016-May-23 18:33N 54°28' E 011°36'1818.0
2016-May-23 17:34N 54°35' E 011°08'1716.5
2016-May-23 16:34N 54°49' E 010°52'1817.8
2016-May-23 15:33N 55°06' E 011°02'1717.0
2016-May-23 14:33N 55°23' E 011°01'3416.2
2016-May-23 12:27N 55°57' E 010°59'5617.6
2016-May-23 09:14N 56°45' E 011°51'1318.5
2016-May-23 08:33N 56°57' E 011°44'1818.2
2016-May-23 07:33N 57°14' E 011°32'1817.5
2016-May-23 06:33N 57°30' E 011°18'1818.2
2016-May-23 05:34N 57°43' E 010°54'1717.1
2016-May-23 04:33N 57°44' E 010°22'16718.1
2016-May-22 19:19N 55°43' E 006°51'1718.8
2016-May-22 18:24N 55°28' E 006°36'7818.6
2016-May-22 14:11N 54°22' E 005°24'1218.3
2016-May-22 13:34N 54°12' E 005°14'1818.3
2016-May-22 12:33N 53°55' E 005°04'1818.3
2016-May-22 11:33N 53°38' E 004°52'3618.0
2016-May-22 09:33N 53°05' E 004°26'1817.9
2016-May-22 08:33N 52°49' E 004°13'1817.6
2016-May-22 07:33N 52°34' E 003°58'1817.7
2016-May-22 06:33N 52°17' E 003°53'1817.9
2016-May-22 05:33N 51°60' E 004°02'1312.5
2016-May-22 04:33N 51°54' E 004°20'3 3.2
2016-May-22 03:33N 51°53' E 004°25'0 0.0
2016-May-22 02:33N 51°53' E 004°25'0 0.0
2016-May-22 01:33N 51°53' E 004°25'0 0.0
2016-May-22 00:33N 51°53' E 004°25'0 0.0
2016-May-21 23:33N 51°53' E 004°25'0 0.0
2016-May-21 22:33N 51°53' E 004°25'0 0.0
2016-May-21 21:33N 51°53' E 004°25'0 0.0
2016-May-21 20:33N 51°53' E 004°25'0 0.0
2016-May-21 19:33N 51°53' E 004°25'0 0.0
2016-May-21 18:33N 51°53' E 004°25'0 0.0
2016-May-21 17:33N 51°53' E 004°25'0 0.0
2016-May-21 16:33N 51°53' E 004°25'0 0.0
2016-May-21 15:33N 51°53' E 004°25'0 0.0
2016-May-21 14:33N 51°53' E 004°25'0 0.0
2016-May-21 13:33N 51°53' E 004°25'0 0.0
2016-May-21 12:33N 51°53' E 004°25'6 5.9
2016-May-21 11:33N 51°54' E 004°16'1313.0
2016-May-21 10:34N 51°60' E 003°57'1817.5
2016-May-21 09:34N 52°07' E 003°31'4417.9
2016-May-21 07:05N 52°32' E 002°31'1018.4
2016-May-21 06:33N 52°38' E 002°18'1918.8
2016-May-21 05:34N 52°48' E 001°52'1818.2
2016-May-21 04:34N 53°01' E 001°31'1817.6
2016-May-21 03:33N 53°15' E 001°13'4117.6
2016-May-21 01:13N 53°49' E 000°36'1217.6
2016-May-21 00:34N 53°58' E 000°22'1717.2
2016-May-20 23:34N 54°11' E 000°03'1716.7
2016-May-20 22:34N 54°23' W 000°17'1616.1
2016-May-20 21:33N 54°34' W 000°38'1514.6
2016-May-20 20:32N 54°40' W 001°01'4 0.3
2016-May-20 07:33N 54°43' W 000°59'1514.8
2016-May-20 06:33N 54°49' W 000°36'1515.4
2016-May-20 05:33N 54°56' W 000°12'38416.0
2016-May-19 05:32N 57°45' E 010°11'1515.5
2016-May-19 04:33N 57°48' E 010°38'1515.0
2016-May-19 03:33N 57°40' E 011°03'1615.9
2016-May-19 02:33N 57°29' E 011°24'1616.3
2016-May-19 01:34N 57°14' E 011°36'1616.3
2016-May-19 00:33N 56°59' E 011°46'1616.5
2016-May-18 23:33N 56°44' E 011°59'1616.0
2016-May-18 22:33N 56°30' E 012°13'1616.4
2016-May-18 21:33N 56°15' E 012°25'1716.7
2016-May-18 20:33N 56°01' E 012°41'1616.0
2016-May-18 19:33N 55°45' E 012°42'1312.7
2016-May-18 18:33N 55°32' E 012°43'1514.8
2016-May-18 17:33N 55°17' E 012°45'1717.0
2016-May-18 16:34N 55°15' E 013°14'1716.9
2016-May-18 15:33N 55°14' E 013°44'1717.4
2016-May-18 14:33N 55°13' E 014°15'1716.8
2016-May-18 13:34N 55°25' E 014°36'1616.4
2016-May-18 12:33N 55°27' E 015°04'1716.6
2016-May-18 11:34N 55°28' E 015°34'2216.7
2016-May-18 10:15N 55°28' E 016°12'4616.6
2016-May-18 07:28N 55°30' E 017°34'1516.8
2016-May-18 06:33N 55°32' E 018°00'1716.7
2016-May-18 05:33N 55°35' E 018°30'1716.8
2016-May-18 04:33N 55°38' E 018°59'253 9.6
2016-May-17 02:13N 59°26' E 022°23'1517.8
2016-May-17 01:24N 59°33' E 022°48'  
Track history (hours):
 
Tides and Currents Weather Stations Pressure Air Temp Water Temp Dewpoint Dewpoint Depression Visibility Wind Speed Wind Dir Waves Ship Positions

Containerships 6

Last reported at 2016-May-27 01:22 UTC. Time now 2016-May-27 04:29 UTC.
Position N 59°59' E 026°00'.

Length 155 m; beam 21.8 m; draft 8.9 m.

Type: Ship (hazmat cat A). MMSI: 211315096.

Date/timePositionNaut miles runAvg speedWind from/ knotsBaromVisibWave heightAir tempDewpointWater temp
2016-May-27 01:22N 59°59' E 026°00'1215.1
2016-May-27 00:34N 60°01' E 026°24'1515.1
2016-May-26 23:34N 60°00' E 026°54'1514.6
2016-May-26 22:31N 60°05' E 027°23'2814.2
2016-May-26 20:33N 60°07' E 028°19'1312.8
2016-May-26 19:33N 60°03' E 028°43'5 5.5
2016-May-26 18:34N 60°03' E 028°53'6 5.4
2016-May-26 17:33N 60°02' E 029°05'6 5.7
2016-May-26 16:31N 60°02' E 029°16'10 7.6
2016-May-26 15:09N 60°00' E 029°37'3 5.1
2016-May-26 14:33N 60°00' E 029°43'0 0.2
2016-May-26 13:17N 60°00' E 029°43'0 0.0
2016-May-26 12:33N 60°00' E 029°43'0 0.0
2016-May-26 11:33N 60°00' E 029°43'0 0.0
2016-May-26 09:31N 60°00' E 029°43'0 0.0
2016-May-26 08:25N 60°00' E 029°43'0 0.0
2016-May-26 07:33N 60°00' E 029°43'0 0.0
2016-May-26 06:33N 60°00' E 029°43'0 0.1
2016-May-26 05:33N 60°00' E 029°43'6 5.9
2016-May-26 04:33N 60°01' E 029°31'10 9.2
2016-May-26 03:25N 60°02' E 029°10'6 7.2
2016-May-26 02:34N 60°02' E 028°58'7 7.3
2016-May-26 01:33N 60°02' E 028°43'1211.6
2016-May-26 00:33N 60°05' E 028°21'1514.9
2016-May-25 23:34N 60°10' E 027°53'1514.5
2016-May-25 22:33N 60°05' E 027°26'1514.9
2016-May-25 21:33N 59°58' E 026°59'1515.1
2016-May-25 20:34N 59°58' E 026°29'1715.8
2016-May-25 19:28N 59°54' E 025°56'1415.0
2016-May-25 18:33N 59°53' E 025°29'18 1.2
2016-May-25 03:14N 60°10' E 025°13'4816.4
2016-May-25 00:19N 59°39' E 023°59'1417.8
2016-May-24 23:33N 59°35' E 023°33'3817.9
2016-May-24 21:24N 59°20' E 022°24'30317.6
2016-May-24 04:14N 55°45' E 015°48'1217.9
2016-May-24 03:34N 55°38' E 015°30'1818.0
2016-May-24 02:34N 55°29' E 015°03'1817.9
2016-May-24 01:34N 55°21' E 014°34'1818.1
2016-May-24 00:33N 55°07' E 014°15'1817.6
2016-May-23 23:33N 54°58' E 013°49'1817.9
2016-May-23 22:33N 54°51' E 013°20'1818.1
2016-May-23 21:33N 54°46' E 012°50'2217.6
2016-May-23 20:19N 54°34' E 012°18'1415.0
2016-May-23 19:22N 54°25' E 011°59'1417.4
2016-May-23 18:33N 54°28' E 011°36'1818.0
2016-May-23 17:34N 54°35' E 011°08'1716.5
2016-May-23 16:34N 54°49' E 010°52'1817.8
2016-May-23 15:33N 55°06' E 011°02'1717.0
2016-May-23 14:33N 55°23' E 011°01'3416.2
2016-May-23 12:27N 55°57' E 010°59'5617.6
2016-May-23 09:14N 56°45' E 011°51'1318.5
2016-May-23 08:33N 56°57' E 011°44'1818.2
2016-May-23 07:33N 57°14' E 011°32'1817.5
2016-May-23 06:33N 57°30' E 011°18'1818.2
2016-May-23 05:34N 57°43' E 010°54'1717.1
2016-May-23 04:33N 57°44' E 010°22'16718.1
2016-May-22 19:19N 55°43' E 006°51'1718.8
2016-May-22 18:24N 55°28' E 006°36'7818.6
2016-May-22 14:11N 54°22' E 005°24'1218.3
2016-May-22 13:34N 54°12' E 005°14'1818.3
2016-May-22 12:33N 53°55' E 005°04'1818.3
2016-May-22 11:33N 53°38' E 004°52'3618.0
2016-May-22 09:33N 53°05' E 004°26'1817.9
2016-May-22 08:33N 52°49' E 004°13'1817.6
2016-May-22 07:33N 52°34' E 003°58'1817.7
2016-May-22 06:33N 52°17' E 003°53'1817.9
2016-May-22 05:33N 51°60' E 004°02'1312.5
2016-May-22 04:33N 51°54' E 004°20'3 3.2
2016-May-22 03:33N 51°53' E 004°25'0 0.0
2016-May-22 02:33N 51°53' E 004°25'0 0.0
2016-May-22 01:33N 51°53' E 004°25'0 0.0
2016-May-22 00:33N 51°53' E 004°25'0 0.0
2016-May-21 23:33N 51°53' E 004°25'0 0.0
2016-May-21 22:33N 51°53' E 004°25'0 0.0
2016-May-21 21:33N 51°53' E 004°25'0 0.0
2016-May-21 20:33N 51°53' E 004°25'0 0.0
2016-May-21 19:33N 51°53' E 004°25'0 0.0
2016-May-21 18:33N 51°53' E 004°25'0 0.0
2016-May-21 17:33N 51°53' E 004°25'0 0.0
2016-May-21 16:33N 51°53' E 004°25'0 0.0
2016-May-21 15:33N 51°53' E 004°25'0 0.0
2016-May-21 14:33N 51°53' E 004°25'0 0.0
2016-May-21 13:33N 51°53' E 004°25'0 0.0
2016-May-21 12:33N 51°53' E 004°25'6 5.9
2016-May-21 11:33N 51°54' E 004°16'1313.0
2016-May-21 10:34N 51°60' E 003°57'1817.5
2016-May-21 09:34N 52°07' E 003°31'4417.9
2016-May-21 07:05N 52°32' E 002°31'1018.4
2016-May-21 06:33N 52°38' E 002°18'1918.8
2016-May-21 05:34N 52°48' E 001°52'1818.2
2016-May-21 04:34N 53°01' E 001°31'1817.6
2016-May-21 03:33N 53°15' E 001°13'4117.6
2016-May-21 01:13N 53°49' E 000°36'1217.6
2016-May-21 00:34N 53°58' E 000°22'1717.2
2016-May-20 23:34N 54°11' E 000°03'1716.7
2016-May-20 22:34N 54°23' W 000°17'1616.1
2016-May-20 21:33N 54°34' W 000°38'1514.6
2016-May-20 20:32N 54°40' W 001°01'4 0.3
2016-May-20 07:33N 54°43' W 000°59'1514.8
2016-May-20 06:33N 54°49' W 000°36'1515.4
2016-May-20 05:33N 54°56' W 000°12'38416.0
2016-May-19 05:32N 57°45' E 010°11'1515.5
2016-May-19 04:33N 57°48' E 010°38'1515.0
2016-May-19 03:33N 57°40' E 011°03'1615.9
2016-May-19 02:33N 57°29' E 011°24'1616.3
2016-May-19 01:34N 57°14' E 011°36'1616.3
2016-May-19 00:33N 56°59' E 011°46'1616.5
2016-May-18 23:33N 56°44' E 011°59'1616.0
2016-May-18 22:33N 56°30' E 012°13'1616.4
2016-May-18 21:33N 56°15' E 012°25'1716.7
2016-May-18 20:33N 56°01' E 012°41'1616.0
2016-May-18 19:33N 55°45' E 012°42'1312.7
2016-May-18 18:33N 55°32' E 012°43'1514.8
2016-May-18 17:33N 55°17' E 012°45'1717.0
2016-May-18 16:34N 55°15' E 013°14'1716.9
2016-May-18 15:33N 55°14' E 013°44'1717.4
2016-May-18 14:33N 55°13' E 014°15'1716.8
2016-May-18 13:34N 55°25' E 014°36'1616.4
2016-May-18 12:33N 55°27' E 015°04'1716.6
2016-May-18 11:34N 55°28' E 015°34'2216.7
2016-May-18 10:15N 55°28' E 016°12'4616.6
2016-May-18 07:28N 55°30' E 017°34'1516.8
2016-May-18 06:33N 55°32' E 018°00'1716.7
2016-May-18 05:33N 55°35' E 018°30'1716.8
2016-May-18 04:33N 55°38' E 018°59'253 9.6
2016-May-17 02:13N 59°26' E 022°23'1517.8
2016-May-17 01:24N 59°33' E 022°48'  

Dump ship's entire track history